sensor_id;sensor_type;location;lat;lon;timestamp;P1;durP1;ratioP1;P2;durP2;ratioP2
11691;SDS011;33659;42.672;23.354;2023-03-17T00:00:17;7.33;;;4.70;;
11691;SDS011;33659;42.672;23.354;2023-03-17T00:02:47;5.63;;;4.40;;
11691;SDS011;33659;42.672;23.354;2023-03-17T00:05:16;5.60;;;4.37;;
11691;SDS011;33659;42.672;23.354;2023-03-17T00:07:45;4.60;;;4.10;;
11691;SDS011;33659;42.672;23.354;2023-03-17T00:10:13;5.17;;;4.10;;
11691;SDS011;33659;42.672;23.354;2023-03-17T00:12:42;6.50;;;4.27;;
11691;SDS011;33659;42.672;23.354;2023-03-17T00:15:11;4.73;;;4.33;;
11691;SDS011;33659;42.672;23.354;2023-03-17T00:17:40;5.47;;;4.23;;
11691;SDS011;33659;42.672;23.354;2023-03-17T00:20:12;4.87;;;3.97;;
11691;SDS011;33659;42.672;23.354;2023-03-17T00:22:42;5.30;;;3.93;;
11691;SDS011;33659;42.672;23.354;2023-03-17T00:25:16;4.40;;;4.00;;
11691;SDS011;33659;42.672;23.354;2023-03-17T00:27:45;5.20;;;4.10;;
11691;SDS011;33659;42.672;23.354;2023-03-17T00:30:14;4.63;;;4.23;;
11691;SDS011;33659;42.672;23.354;2023-03-17T00:32:41;4.93;;;4.50;;
11691;SDS011;33659;42.672;23.354;2023-03-17T00:35:19;6.50;;;4.20;;
11691;SDS011;33659;42.672;23.354;2023-03-17T00:37:48;6.80;;;4.60;;
11691;SDS011;33659;42.672;23.354;2023-03-17T00:40:17;5.13;;;4.63;;
11691;SDS011;33659;42.672;23.354;2023-03-17T00:42:47;5.37;;;4.50;;
11691;SDS011;33659;42.672;23.354;2023-03-17T00:45:16;5.33;;;4.07;;
11691;SDS011;33659;42.672;23.354;2023-03-17T00:47:43;5.80;;;4.23;;
11691;SDS011;33659;42.672;23.354;2023-03-17T00:50:12;4.90;;;4.40;;
11691;SDS011;33659;42.672;23.354;2023-03-17T00:52:41;4.53;;;4.10;;
11691;SDS011;33659;42.672;23.354;2023-03-17T00:55:08;4.90;;;4.50;;
11691;SDS011;33659;42.672;23.354;2023-03-17T00:57:36;5.03;;;4.53;;
11691;SDS011;33659;42.672;23.354;2023-03-17T01:00:04;4.53;;;4.13;;
11691;SDS011;33659;42.672;23.354;2023-03-17T01:02:34;6.10;;;4.27;;
11691;SDS011;33659;42.672;23.354;2023-03-17T01:05:01;4.90;;;3.90;;
11691;SDS011;33659;42.672;23.354;2023-03-17T01:07:28;8.23;;;4.90;;
11691;SDS011;33659;42.672;23.354;2023-03-17T01:09:55;4.47;;;3.83;;
11691;SDS011;33659;42.672;23.354;2023-03-17T01:12:22;4.50;;;4.10;;
11691;SDS011;33659;42.672;23.354;2023-03-17T01:14:48;4.53;;;4.13;;
11691;SDS011;33659;42.672;23.354;2023-03-17T01:17:16;4.27;;;3.83;;
11691;SDS011;33659;42.672;23.354;2023-03-17T01:19:45;5.17;;;4.27;;
11691;SDS011;33659;42.672;23.354;2023-03-17T01:22:12;4.67;;;4.17;;
11691;SDS011;33659;42.672;23.354;2023-03-17T01:24:39;4.97;;;4.47;;
11691;SDS011;33659;42.672;23.354;2023-03-17T01:27:06;6.13;;;3.97;;
11691;SDS011;33659;42.672;23.354;2023-03-17T01:29:33;5.23;;;3.90;;
11691;SDS011;33659;42.672;23.354;2023-03-17T01:32:00;4.53;;;3.90;;
11691;SDS011;33659;42.672;23.354;2023-03-17T01:34:28;4.50;;;4.10;;
11691;SDS011;33659;42.672;23.354;2023-03-17T01:36:56;4.13;;;3.70;;
11691;SDS011;33659;42.672;23.354;2023-03-17T01:39:22;4.40;;;4.00;;
11691;SDS011;33659;42.672;23.354;2023-03-17T01:41:49;5.87;;;4.13;;
11691;SDS011;33659;42.672;23.354;2023-03-17T01:44:20;4.47;;;3.80;;
11691;SDS011;33659;42.672;23.354;2023-03-17T01:46:48;5.00;;;3.70;;
11691;SDS011;33659;42.672;23.354;2023-03-17T01:49:17;4.50;;;4.07;;
11691;SDS011;33659;42.672;23.354;2023-03-17T01:51:48;4.20;;;3.80;;
11691;SDS011;33659;42.672;23.354;2023-03-17T01:54:21;4.83;;;3.90;;
11691;SDS011;33659;42.672;23.354;2023-03-17T01:56:52;4.60;;;3.63;;
11691;SDS011;33659;42.672;23.354;2023-03-17T01:59:23;4.70;;;4.10;;
11691;SDS011;33659;42.672;23.354;2023-03-17T02:01:57;4.13;;;3.73;;
11691;SDS011;33659;42.672;23.354;2023-03-17T02:04:27;4.50;;;3.70;;
11691;SDS011;33659;42.672;23.354;2023-03-17T02:06:55;4.00;;;3.70;;
11691;SDS011;33659;42.672;23.354;2023-03-17T02:09:24;4.43;;;3.67;;
11691;SDS011;33659;42.672;23.354;2023-03-17T02:11:52;3.63;;;3.33;;
11691;SDS011;33659;42.672;23.354;2023-03-17T02:14:19;4.07;;;3.67;;
11691;SDS011;33659;42.672;23.354;2023-03-17T02:16:46;3.90;;;3.60;;
11691;SDS011;33659;42.672;23.354;2023-03-17T02:19:13;4.00;;;3.63;;
11691;SDS011;33659;42.672;23.354;2023-03-17T02:21:42;3.57;;;2.90;;
11691;SDS011;33659;42.672;23.354;2023-03-17T02:24:14;4.60;;;3.70;;
11691;SDS011;33659;42.672;23.354;2023-03-17T02:26:46;3.80;;;3.50;;
11691;SDS011;33659;42.672;23.354;2023-03-17T02:29:14;6.37;;;3.60;;
11691;SDS011;33659;42.672;23.354;2023-03-17T02:31:42;4.03;;;3.47;;
11691;SDS011;33659;42.672;23.354;2023-03-17T02:34:09;3.57;;;3.27;;
11691;SDS011;33659;42.672;23.354;2023-03-17T02:36:36;3.50;;;3.20;;
11691;SDS011;33659;42.672;23.354;2023-03-17T02:39:04;4.43;;;2.90;;
11691;SDS011;33659;42.672;23.354;2023-03-17T02:41:31;4.47;;;3.47;;
11691;SDS011;33659;42.672;23.354;2023-03-17T02:43:58;3.93;;;3.50;;
11691;SDS011;33659;42.672;23.354;2023-03-17T02:46:25;3.63;;;3.33;;
11691;SDS011;33659;42.672;23.354;2023-03-17T02:48:52;3.53;;;3.23;;
11691;SDS011;33659;42.672;23.354;2023-03-17T02:51:20;4.43;;;3.50;;
11691;SDS011;33659;42.672;23.354;2023-03-17T02:53:47;3.70;;;3.30;;
11691;SDS011;33659;42.672;23.354;2023-03-17T02:56:15;3.73;;;3.43;;
11691;SDS011;33659;42.672;23.354;2023-03-17T02:58:42;3.90;;;3.00;;
11691;SDS011;33659;42.672;23.354;2023-03-17T03:01:08;3.80;;;3.50;;
11691;SDS011;33659;42.672;23.354;2023-03-17T03:03:36;3.53;;;3.20;;
11691;SDS011;33659;42.672;23.354;2023-03-17T03:06:02;3.47;;;3.17;;
11691;SDS011;33659;42.672;23.354;2023-03-17T03:08:30;3.77;;;3.07;;
11691;SDS011;33659;42.672;23.354;2023-03-17T03:10:56;3.50;;;3.17;;
11691;SDS011;33659;42.672;23.354;2023-03-17T03:13:25;3.50;;;3.20;;
11691;SDS011;33659;42.672;23.354;2023-03-17T03:15:52;3.90;;;3.50;;
11691;SDS011;33659;42.672;23.354;2023-03-17T03:18:19;4.37;;;3.20;;
11691;SDS011;33659;42.672;23.354;2023-03-17T03:20:45;3.97;;;3.50;;
11691;SDS011;33659;42.672;23.354;2023-03-17T03:23:13;3.80;;;3.43;;
11691;SDS011;33659;42.672;23.354;2023-03-17T03:25:40;4.00;;;3.60;;
11691;SDS011;33659;42.672;23.354;2023-03-17T03:28:07;3.87;;;3.50;;
11691;SDS011;33659;42.672;23.354;2023-03-17T03:30:35;4.07;;;3.77;;
11691;SDS011;33659;42.672;23.354;2023-03-17T03:33:03;3.10;;;2.90;;
11691;SDS011;33659;42.672;23.354;2023-03-17T03:35:30;4.23;;;3.47;;
11691;SDS011;33659;42.672;23.354;2023-03-17T03:37:58;4.27;;;3.23;;
11691;SDS011;33659;42.672;23.354;2023-03-17T03:40:25;4.17;;;3.77;;
11691;SDS011;33659;42.672;23.354;2023-03-17T03:42:52;3.53;;;3.17;;
11691;SDS011;33659;42.672;23.354;2023-03-17T03:45:18;3.77;;;3.37;;
11691;SDS011;33659;42.672;23.354;2023-03-17T03:47:46;4.17;;;3.70;;
11691;SDS011;33659;42.672;23.354;2023-03-17T03:50:13;3.73;;;3.43;;
11691;SDS011;33659;42.672;23.354;2023-03-17T03:52:40;5.43;;;3.53;;
11691;SDS011;33659;42.672;23.354;2023-03-17T03:55:07;4.23;;;3.60;;
11691;SDS011;33659;42.672;23.354;2023-03-17T03:57:34;5.00;;;3.67;;
11691;SDS011;33659;42.672;23.354;2023-03-17T04:00:01;4.27;;;3.87;;
11691;SDS011;33659;42.672;23.354;2023-03-17T04:02:29;3.87;;;3.30;;
11691;SDS011;33659;42.672;23.354;2023-03-17T04:04:57;5.07;;;3.60;;
11691;SDS011;33659;42.672;23.354;2023-03-17T04:07:24;3.93;;;3.43;;
11691;SDS011;33659;42.672;23.354;2023-03-17T04:09:51;3.87;;;3.50;;
11691;SDS011;33659;42.672;23.354;2023-03-17T04:12:17;3.90;;;3.37;;
11691;SDS011;33659;42.672;23.354;2023-03-17T04:14:44;4.10;;;3.50;;
11691;SDS011;33659;42.672;23.354;2023-03-17T04:17:11;3.57;;;3.27;;
11691;SDS011;33659;42.672;23.354;2023-03-17T04:19:39;3.93;;;3.50;;
11691;SDS011;33659;42.672;23.354;2023-03-17T04:22:08;4.23;;;3.50;;
11691;SDS011;33659;42.672;23.354;2023-03-17T04:24:37;4.57;;;3.87;;
11691;SDS011;33659;42.672;23.354;2023-03-17T04:27:04;3.70;;;3.30;;
11691;SDS011;33659;42.672;23.354;2023-03-17T04:29:32;4.10;;;3.70;;
11691;SDS011;33659;42.672;23.354;2023-03-17T04:31:59;4.17;;;3.77;;
11691;SDS011;33659;42.672;23.354;2023-03-17T04:34:26;3.90;;;3.47;;
11691;SDS011;33659;42.672;23.354;2023-03-17T04:36:53;4.23;;;3.23;;
11691;SDS011;33659;42.672;23.354;2023-03-17T04:39:21;3.63;;;3.27;;
11691;SDS011;33659;42.672;23.354;2023-03-17T04:41:48;4.67;;;3.77;;
11691;SDS011;33659;42.672;23.354;2023-03-17T04:44:14;4.27;;;3.90;;
11691;SDS011;33659;42.672;23.354;2023-03-17T04:46:41;3.93;;;3.53;;
11691;SDS011;33659;42.672;23.354;2023-03-17T04:49:08;4.23;;;3.60;;
11691;SDS011;33659;42.672;23.354;2023-03-17T04:51:34;4.27;;;3.80;;
11691;SDS011;33659;42.672;23.354;2023-03-17T04:54:02;5.10;;;3.63;;
11691;SDS011;33659;42.672;23.354;2023-03-17T04:56:30;3.50;;;3.20;;
11691;SDS011;33659;42.672;23.354;2023-03-17T04:58:56;5.00;;;3.57;;
11691;SDS011;33659;42.672;23.354;2023-03-17T05:01:23;5.50;;;3.97;;
11691;SDS011;33659;42.672;23.354;2023-03-17T05:03:50;4.27;;;3.70;;
11691;SDS011;33659;42.672;23.354;2023-03-17T05:06:17;4.90;;;4.40;;
11691;SDS011;33659;42.672;23.354;2023-03-17T05:08:43;4.90;;;4.30;;
11691;SDS011;33659;42.672;23.354;2023-03-17T05:11:10;5.23;;;4.17;;
11691;SDS011;33659;42.672;23.354;2023-03-17T05:13:39;4.77;;;3.83;;
11691;SDS011;33659;42.672;23.354;2023-03-17T05:16:06;5.27;;;4.23;;
11691;SDS011;33659;42.672;23.354;2023-03-17T05:18:33;5.03;;;4.13;;
11691;SDS011;33659;42.672;23.354;2023-03-17T05:21:01;5.57;;;4.50;;
11691;SDS011;33659;42.672;23.354;2023-03-17T05:23:28;4.37;;;3.83;;
11691;SDS011;33659;42.672;23.354;2023-03-17T05:25:55;8.67;;;4.87;;
11691;SDS011;33659;42.672;23.354;2023-03-17T05:28:22;5.93;;;4.27;;
11691;SDS011;33659;42.672;23.354;2023-03-17T05:30:50;5.53;;;3.83;;
11691;SDS011;33659;42.672;23.354;2023-03-17T05:33:17;5.40;;;4.63;;
11691;SDS011;33659;42.672;23.354;2023-03-17T05:35:44;6.73;;;4.27;;
11691;SDS011;33659;42.672;23.354;2023-03-17T05:38:11;5.47;;;4.33;;
11691;SDS011;33659;42.672;23.354;2023-03-17T05:40:39;6.60;;;4.33;;
11691;SDS011;33659;42.672;23.354;2023-03-17T05:43:06;7.87;;;4.67;;
11691;SDS011;33659;42.672;23.354;2023-03-17T05:45:33;5.63;;;4.27;;
11691;SDS011;33659;42.672;23.354;2023-03-17T05:48:01;7.37;;;4.37;;
11691;SDS011;33659;42.672;23.354;2023-03-17T05:50:28;5.40;;;4.27;;
11691;SDS011;33659;42.672;23.354;2023-03-17T05:52:55;5.70;;;4.30;;
11691;SDS011;33659;42.672;23.354;2023-03-17T05:55:22;4.97;;;4.47;;
11691;SDS011;33659;42.672;23.354;2023-03-17T05:57:48;4.40;;;4.00;;
11691;SDS011;33659;42.672;23.354;2023-03-17T06:00:15;5.30;;;4.73;;
11691;SDS011;33659;42.672;23.354;2023-03-17T06:02:45;5.90;;;4.43;;
11691;SDS011;33659;42.672;23.354;2023-03-17T06:05:13;6.93;;;5.23;;
11691;SDS011;33659;42.672;23.354;2023-03-17T06:07:40;5.97;;;5.10;;
11691;SDS011;33659;42.672;23.354;2023-03-17T06:10:07;5.67;;;4.50;;
11691;SDS011;33659;42.672;23.354;2023-03-17T06:12:36;5.20;;;4.70;;
11691;SDS011;33659;42.672;23.354;2023-03-17T06:15:03;6.00;;;4.67;;
11691;SDS011;33659;42.672;23.354;2023-03-17T06:17:32;7.53;;;5.03;;
11691;SDS011;33659;42.672;23.354;2023-03-17T06:19:59;5.90;;;4.93;;
11691;SDS011;33659;42.672;23.354;2023-03-17T06:22:27;5.63;;;5.00;;
11691;SDS011;33659;42.672;23.354;2023-03-17T06:24:54;7.43;;;5.03;;
11691;SDS011;33659;42.672;23.354;2023-03-17T06:27:20;6.77;;;5.07;;
11691;SDS011;33659;42.672;23.354;2023-03-17T06:29:47;7.13;;;4.80;;
11691;SDS011;33659;42.672;23.354;2023-03-17T06:32:14;7.37;;;5.03;;
11691;SDS011;33659;42.672;23.354;2023-03-17T06:34:41;5.10;;;4.60;;
11691;SDS011;33659;42.672;23.354;2023-03-17T06:37:08;5.40;;;4.23;;
11691;SDS011;33659;42.672;23.354;2023-03-17T06:39:37;5.87;;;4.30;;
11691;SDS011;33659;42.672;23.354;2023-03-17T06:42:05;6.20;;;4.33;;
11691;SDS011;33659;42.672;23.354;2023-03-17T06:44:32;4.97;;;4.43;;
11691;SDS011;33659;42.672;23.354;2023-03-17T06:47:00;5.23;;;4.30;;
11691;SDS011;33659;42.672;23.354;2023-03-17T06:49:27;6.20;;;4.27;;
11691;SDS011;33659;42.672;23.354;2023-03-17T06:51:53;5.00;;;4.27;;
11691;SDS011;33659;42.672;23.354;2023-03-17T06:54:20;5.67;;;4.30;;
11691;SDS011;33659;42.672;23.354;2023-03-17T06:56:50;5.10;;;4.60;;
11691;SDS011;33659;42.672;23.354;2023-03-17T06:59:16;5.60;;;4.40;;
11691;SDS011;33659;42.672;23.354;2023-03-17T07:01:44;5.40;;;4.60;;
11691;SDS011;33659;42.672;23.354;2023-03-17T07:04:10;5.87;;;4.03;;
11691;SDS011;33659;42.672;23.354;2023-03-17T07:06:37;4.23;;;3.83;;
11691;SDS011;33659;42.672;23.354;2023-03-17T07:09:04;5.30;;;4.60;;
11691;SDS011;33659;42.672;23.354;2023-03-17T07:11:31;4.77;;;4.13;;
11691;SDS011;33659;42.672;23.354;2023-03-17T07:13:59;4.87;;;4.13;;
11691;SDS011;33659;42.672;23.354;2023-03-17T07:16:26;4.73;;;4.13;;
11691;SDS011;33659;42.672;23.354;2023-03-17T07:18:53;7.37;;;4.13;;
11691;SDS011;33659;42.672;23.354;2023-03-17T07:21:20;5.00;;;4.23;;
11691;SDS011;33659;42.672;23.354;2023-03-17T07:23:46;4.73;;;4.20;;
11691;SDS011;33659;42.672;23.354;2023-03-17T07:26:13;5.07;;;4.17;;
11691;SDS011;33659;42.672;23.354;2023-03-17T07:28:40;5.77;;;4.47;;
11691;SDS011;33659;42.672;23.354;2023-03-17T07:31:08;5.17;;;4.10;;
11691;SDS011;33659;42.672;23.354;2023-03-17T07:33:38;5.03;;;4.20;;
11691;SDS011;33659;42.672;23.354;2023-03-17T07:36:06;8.67;;;4.83;;
11691;SDS011;33659;42.672;23.354;2023-03-17T07:38:34;6.17;;;5.10;;
11691;SDS011;33659;42.672;23.354;2023-03-17T07:41:01;5.40;;;4.60;;
11691;SDS011;33659;42.672;23.354;2023-03-17T07:43:28;5.40;;;4.67;;
11691;SDS011;33659;42.672;23.354;2023-03-17T07:45:55;6.00;;;4.27;;
11691;SDS011;33659;42.672;23.354;2023-03-17T07:48:24;6.13;;;4.73;;
11691;SDS011;33659;42.672;23.354;2023-03-17T07:50:50;6.07;;;4.93;;
11691;SDS011;33659;42.672;23.354;2023-03-17T07:53:17;6.67;;;4.70;;
11691;SDS011;33659;42.672;23.354;2023-03-17T07:55:44;8.30;;;5.40;;
11691;SDS011;33659;42.672;23.354;2023-03-17T07:58:10;6.00;;;4.60;;
11691;SDS011;33659;42.672;23.354;2023-03-17T08:00:37;5.40;;;4.53;;
11691;SDS011;33659;42.672;23.354;2023-03-17T08:03:04;6.03;;;4.43;;
11691;SDS011;33659;42.672;23.354;2023-03-17T08:05:33;5.67;;;5.07;;
11691;SDS011;33659;42.672;23.354;2023-03-17T08:07:59;6.10;;;4.63;;
11691;SDS011;33659;42.672;23.354;2023-03-17T08:10:26;6.80;;;4.90;;
11691;SDS011;33659;42.672;23.354;2023-03-17T08:12:53;6.17;;;4.47;;
11691;SDS011;33659;42.672;23.354;2023-03-17T08:15:19;5.40;;;4.90;;
11691;SDS011;33659;42.672;23.354;2023-03-17T08:17:46;5.70;;;4.30;;
11691;SDS011;33659;42.672;23.354;2023-03-17T08:20:13;5.57;;;4.60;;
11691;SDS011;33659;42.672;23.354;2023-03-17T08:22:41;5.67;;;4.63;;
11691;SDS011;33659;42.672;23.354;2023-03-17T08:25:08;6.03;;;4.07;;
11691;SDS011;33659;42.672;23.354;2023-03-17T08:27:35;5.43;;;4.27;;
11691;SDS011;33659;42.672;23.354;2023-03-17T08:30:02;4.33;;;3.93;;
11691;SDS011;33659;42.672;23.354;2023-03-17T08:32:29;4.20;;;3.80;;
11691;SDS011;33659;42.672;23.354;2023-03-17T08:34:56;9.57;;;4.60;;
11691;SDS011;33659;42.672;23.354;2023-03-17T08:37:23;7.33;;;4.07;;
11691;SDS011;33659;42.672;23.354;2023-03-17T08:39:51;6.03;;;4.03;;
11691;SDS011;33659;42.672;23.354;2023-03-17T08:42:18;4.30;;;3.60;;
11691;SDS011;33659;42.672;23.354;2023-03-17T08:44:45;4.43;;;3.80;;
11691;SDS011;33659;42.672;23.354;2023-03-17T08:47:11;4.63;;;3.97;;
11691;SDS011;33659;42.672;23.354;2023-03-17T08:49:38;6.10;;;4.00;;
11691;SDS011;33659;42.672;23.354;2023-03-17T08:52:05;6.93;;;4.50;;
11691;SDS011;33659;42.672;23.354;2023-03-17T08:54:33;6.33;;;4.17;;
11691;SDS011;33659;42.672;23.354;2023-03-17T08:57:02;7.50;;;4.87;;
11691;SDS011;33659;42.672;23.354;2023-03-17T08:59:28;6.07;;;4.33;;
11691;SDS011;33659;42.672;23.354;2023-03-17T09:01:55;4.57;;;4.17;;
11691;SDS011;33659;42.672;23.354;2023-03-17T09:04:22;6.33;;;4.63;;
11691;SDS011;33659;42.672;23.354;2023-03-17T09:06:50;6.13;;;4.50;;
11691;SDS011;33659;42.672;23.354;2023-03-17T09:09:17;10.00;;;4.93;;
11691;SDS011;33659;42.672;23.354;2023-03-17T09:11:44;5.47;;;4.57;;
11691;SDS011;33659;42.672;23.354;2023-03-17T09:14:12;5.50;;;4.63;;
11691;SDS011;33659;42.672;23.354;2023-03-17T09:16:39;5.13;;;4.60;;
11691;SDS011;33659;42.672;23.354;2023-03-17T09:19:06;7.90;;;4.40;;
11691;SDS011;33659;42.672;23.354;2023-03-17T09:21:33;7.10;;;4.20;;
11691;SDS011;33659;42.672;23.354;2023-03-17T09:23:59;4.60;;;4.13;;
11691;SDS011;33659;42.672;23.354;2023-03-17T09:26:26;5.60;;;4.20;;
11691;SDS011;33659;42.672;23.354;2023-03-17T09:28:53;5.03;;;4.50;;
11691;SDS011;33659;42.672;23.354;2023-03-17T09:31:22;5.17;;;4.37;;
11691;SDS011;33659;42.672;23.354;2023-03-17T09:33:48;9.60;;;4.83;;
11691;SDS011;33659;42.672;23.354;2023-03-17T09:36:16;5.43;;;3.93;;
11691;SDS011;33659;42.672;23.354;2023-03-17T09:38:43;5.77;;;4.47;;
11691;SDS011;33659;42.672;23.354;2023-03-17T09:41:16;6.17;;;4.20;;
11691;SDS011;33659;42.672;23.354;2023-03-17T09:43:58;6.47;;;4.80;;
11691;SDS011;33659;42.672;23.354;2023-03-17T09:46:36;7.37;;;5.07;;
11691;SDS011;33659;42.672;23.354;2023-03-17T09:49:11;5.43;;;4.23;;
11691;SDS011;33659;42.672;23.354;2023-03-17T09:51:40;8.60;;;4.87;;
11691;SDS011;33659;42.672;23.354;2023-03-17T09:54:10;5.53;;;4.37;;
11691;SDS011;33659;42.672;23.354;2023-03-17T09:56:43;5.97;;;4.23;;
11691;SDS011;33659;42.672;23.354;2023-03-17T09:59:20;6.40;;;4.80;;
11691;SDS011;33659;42.672;23.354;2023-03-17T10:01:56;6.83;;;5.20;;
11691;SDS011;33659;42.672;23.354;2023-03-17T10:04:22;9.43;;;5.20;;
11691;SDS011;33659;42.672;23.354;2023-03-17T10:06:49;8.00;;;5.43;;
11691;SDS011;33659;42.672;23.354;2023-03-17T10:09:20;8.00;;;5.03;;
11691;SDS011;33659;42.672;23.354;2023-03-17T10:11:53;9.10;;;4.10;;
11691;SDS011;33659;42.672;23.354;2023-03-17T10:14:31;11.23;;;4.93;;
11691;SDS011;33659;42.672;23.354;2023-03-17T10:17:08;7.07;;;4.07;;
11691;SDS011;33659;42.672;23.354;2023-03-17T10:19:41;4.97;;;4.33;;
11691;SDS011;33659;42.672;23.354;2023-03-17T10:22:13;4.20;;;3.80;;
11691;SDS011;33659;42.672;23.354;2023-03-17T10:24:44;5.83;;;4.47;;
11691;SDS011;33659;42.672;23.354;2023-03-17T10:27:14;5.93;;;3.90;;
11691;SDS011;33659;42.672;23.354;2023-03-17T10:29:42;5.70;;;4.00;;
11691;SDS011;33659;42.672;23.354;2023-03-17T10:32:12;12.23;;;5.93;;
11691;SDS011;33659;42.672;23.354;2023-03-17T10:34:40;6.77;;;4.03;;
11691;SDS011;33659;42.672;23.354;2023-03-17T10:37:11;6.80;;;4.27;;
11691;SDS011;33659;42.672;23.354;2023-03-17T10:39:43;5.87;;;4.10;;
11691;SDS011;33659;42.672;23.354;2023-03-17T10:42:12;4.20;;;3.40;;
11691;SDS011;33659;42.672;23.354;2023-03-17T10:44:47;4.47;;;3.83;;
11691;SDS011;33659;42.672;23.354;2023-03-17T10:47:20;4.63;;;3.60;;
11691;SDS011;33659;42.672;23.354;2023-03-17T10:49:49;4.07;;;3.43;;
11691;SDS011;33659;42.672;23.354;2023-03-17T10:52:18;6.00;;;3.60;;
11691;SDS011;33659;42.672;23.354;2023-03-17T10:54:48;3.80;;;3.33;;
11691;SDS011;33659;42.672;23.354;2023-03-17T10:57:16;5.90;;;3.80;;
11691;SDS011;33659;42.672;23.354;2023-03-17T10:59:47;4.83;;;3.60;;
11691;SDS011;33659;42.672;23.354;2023-03-17T11:02:18;3.30;;;3.03;;
11691;SDS011;33659;42.672;23.354;2023-03-17T11:04:50;4.83;;;3.77;;
11691;SDS011;33659;42.672;23.354;2023-03-17T11:07:20;8.23;;;3.60;;
11691;SDS011;33659;42.672;23.354;2023-03-17T11:09:55;6.33;;;3.57;;
11691;SDS011;33659;42.672;23.354;2023-03-17T11:12:24;5.10;;;3.40;;
11691;SDS011;33659;42.672;23.354;2023-03-17T11:14:53;4.67;;;3.67;;
11691;SDS011;33659;42.672;23.354;2023-03-17T11:17:29;8.07;;;4.73;;
11691;SDS011;33659;42.672;23.354;2023-03-17T11:20:09;7.43;;;3.83;;
11691;SDS011;33659;42.672;23.354;2023-03-17T11:22:47;5.30;;;3.77;;
11691;SDS011;33659;42.672;23.354;2023-03-17T11:25:20;5.70;;;3.90;;
11691;SDS011;33659;42.672;23.354;2023-03-17T11:27:50;5.70;;;3.73;;
11691;SDS011;33659;42.672;23.354;2023-03-17T11:30:25;5.93;;;4.00;;
11691;SDS011;33659;42.672;23.354;2023-03-17T11:33:01;9.20;;;3.63;;
11691;SDS011;33659;42.672;23.354;2023-03-17T11:35:43;3.53;;;3.10;;
11691;SDS011;33659;42.672;23.354;2023-03-17T11:38:18;3.83;;;3.23;;
11691;SDS011;33659;42.672;23.354;2023-03-17T11:41:05;4.73;;;3.47;;
11691;SDS011;33659;42.672;23.354;2023-03-17T11:43:47;4.87;;;3.40;;
11691;SDS011;33659;42.672;23.354;2023-03-17T11:46:27;4.47;;;3.40;;
11691;SDS011;33659;42.672;23.354;2023-03-17T11:48:57;3.83;;;3.40;;
11691;SDS011;33659;42.672;23.354;2023-03-17T11:51:32;4.17;;;3.77;;
11691;SDS011;33659;42.672;23.354;2023-03-17T11:54:06;7.87;;;3.83;;
11691;SDS011;33659;42.672;23.354;2023-03-17T11:56:39;6.83;;;3.40;;
11691;SDS011;33659;42.672;23.354;2023-03-17T11:59:12;3.30;;;2.90;;
11691;SDS011;33659;42.672;23.354;2023-03-17T12:01:50;3.83;;;3.33;;
11691;SDS011;33659;42.672;23.354;2023-03-17T12:04:25;4.50;;;3.07;;
11691;SDS011;33659;42.672;23.354;2023-03-17T12:06:59;5.37;;;3.00;;
11691;SDS011;33659;42.672;23.354;2023-03-17T12:09:34;3.73;;;2.77;;
11691;SDS011;33659;42.672;23.354;2023-03-17T12:12:05;6.13;;;3.17;;
11691;SDS011;33659;42.672;23.354;2023-03-17T12:14:35;4.97;;;3.17;;
11691;SDS011;33659;42.672;23.354;2023-03-17T12:17:08;5.57;;;3.17;;
11691;SDS011;33659;42.672;23.354;2023-03-17T12:19:41;4.23;;;3.40;;
11691;SDS011;33659;42.672;23.354;2023-03-17T12:22:18;3.80;;;3.07;;
11691;SDS011;33659;42.672;23.354;2023-03-17T12:24:52;4.00;;;3.27;;
11691;SDS011;33659;42.672;23.354;2023-03-17T12:27:31;6.60;;;3.00;;
11691;SDS011;33659;42.672;23.354;2023-03-17T12:30:05;9.37;;;2.90;;
11691;SDS011;33659;42.672;23.354;2023-03-17T12:32:43;4.67;;;3.27;;
11691;SDS011;33659;42.672;23.354;2023-03-17T12:35:24;3.67;;;3.10;;
11691;SDS011;33659;42.672;23.354;2023-03-17T12:37:53;3.67;;;3.10;;
11691;SDS011;33659;42.672;23.354;2023-03-17T12:40:21;5.67;;;2.60;;
11691;SDS011;33659;42.672;23.354;2023-03-17T12:42:53;3.23;;;2.30;;
11691;SDS011;33659;42.672;23.354;2023-03-17T12:45:41;3.57;;;2.50;;
11691;SDS011;33659;42.672;23.354;2023-03-17T12:48:33;2.87;;;2.57;;
11691;SDS011;33659;42.672;23.354;2023-03-17T12:51:33;5.90;;;2.67;;
11691;SDS011;33659;42.672;23.354;2023-03-17T12:54:11;2.90;;;2.57;;
11691;SDS011;33659;42.672;23.354;2023-03-17T12:56:42;3.23;;;2.00;;
11691;SDS011;33659;42.672;23.354;2023-03-17T12:59:13;2.87;;;2.23;;
11691;SDS011;33659;42.672;23.354;2023-03-17T13:01:42;1.90;;;1.80;;
11691;SDS011;33659;42.672;23.354;2023-03-17T13:04:14;2.57;;;1.90;;
11691;SDS011;33659;42.672;23.354;2023-03-17T13:06:53;2.17;;;1.97;;
11691;SDS011;33659;42.672;23.354;2023-03-17T13:09:28;1.90;;;1.67;;
11691;SDS011;33659;42.672;23.354;2023-03-17T13:12:00;2.70;;;1.73;;
11691;SDS011;33659;42.672;23.354;2023-03-17T13:14:37;2.57;;;1.67;;
11691;SDS011;33659;42.672;23.354;2023-03-17T13:20:13;2.30;;;1.80;;
11691;SDS011;33659;42.672;23.354;2023-03-17T13:25:31;2.67;;;1.77;;
11691;SDS011;33659;42.672;23.354;2023-03-17T13:28:15;1.70;;;1.57;;
11691;SDS011;33659;42.672;23.354;2023-03-17T13:30:54;1.77;;;1.67;;
11691;SDS011;33659;42.672;23.354;2023-03-17T13:33:32;1.50;;;1.40;;
11691;SDS011;33659;42.672;23.354;2023-03-17T13:42:16;1.60;;;1.50;;
11691;SDS011;33659;42.672;23.354;2023-03-17T13:44:53;2.17;;;1.63;;
11691;SDS011;33659;42.672;23.354;2023-03-17T13:47:34;1.40;;;1.30;;
11691;SDS011;33659;42.672;23.354;2023-03-17T13:50:06;2.73;;;1.43;;
11691;SDS011;33659;42.672;23.354;2023-03-17T13:52:38;1.70;;;1.60;;
11691;SDS011;33659;42.672;23.354;2023-03-17T14:01:01;2.20;;;1.90;;
11691;SDS011;33659;42.672;23.354;2023-03-17T14:03:36;2.03;;;1.83;;
11691;SDS011;33659;42.672;23.354;2023-03-17T14:06:07;2.00;;;1.77;;
11691;SDS011;33659;42.672;23.354;2023-03-17T14:08:38;1.80;;;1.63;;
11691;SDS011;33659;42.672;23.354;2023-03-17T14:11:16;2.47;;;1.83;;
11691;SDS011;33659;42.672;23.354;2023-03-17T14:13:51;1.80;;;1.50;;
11691;SDS011;33659;42.672;23.354;2023-03-17T14:16:28;2.27;;;1.90;;
11691;SDS011;33659;42.672;23.354;2023-03-17T14:18:57;1.97;;;1.70;;
11691;SDS011;33659;42.672;23.354;2023-03-17T14:21:33;3.20;;;2.00;;
11691;SDS011;33659;42.672;23.354;2023-03-17T14:24:01;1.90;;;1.80;;
11691;SDS011;33659;42.672;23.354;2023-03-17T14:26:42;2.87;;;1.73;;
11691;SDS011;33659;42.672;23.354;2023-03-17T14:29:08;1.80;;;1.70;;
11691;SDS011;33659;42.672;23.354;2023-03-17T14:31:41;3.57;;;2.40;;
11691;SDS011;33659;42.672;23.354;2023-03-17T14:34:12;2.37;;;2.00;;
11691;SDS011;33659;42.672;23.354;2023-03-17T14:36:40;1.90;;;1.80;;
11691;SDS011;33659;42.672;23.354;2023-03-17T14:39:17;2.20;;;1.50;;
11691;SDS011;33659;42.672;23.354;2023-03-17T14:41:56;3.57;;;1.90;;
11691;SDS011;33659;42.672;23.354;2023-03-17T14:44:24;2.00;;;1.90;;
11691;SDS011;33659;42.672;23.354;2023-03-17T14:46:58;2.37;;;2.10;;
11691;SDS011;33659;42.672;23.354;2023-03-17T14:49:28;2.93;;;2.03;;
11691;SDS011;33659;42.672;23.354;2023-03-17T14:51:57;2.30;;;1.90;;
11691;SDS011;33659;42.672;23.354;2023-03-17T14:54:26;2.10;;;1.90;;
11691;SDS011;33659;42.672;23.354;2023-03-17T14:56:58;3.43;;;2.00;;
11691;SDS011;33659;42.672;23.354;2023-03-17T14:59:28;1.70;;;1.60;;
11691;SDS011;33659;42.672;23.354;2023-03-17T15:01:59;3.30;;;2.27;;
11691;SDS011;33659;42.672;23.354;2023-03-17T15:04:27;3.43;;;2.30;;